Aérodrome :
LOGIN :

S'inscrire | Disclaimer

   EN    FR    IT 

 










Légende :    VFR   VFR Marginal   IFR   IFR Intensif   IFR Très Intensif
Visi : 
Plafond : 
>= 8 km
>= 3000ft
5 à 8 km
1000 à 3000 ft
1500m à 5 km
500 à 1000 ft
800 à 1500m
200 à 500 ft
< 800m
< 200 ft
Symboles :   Orages  Brouillard  Fortes neiges  Fortes précipitations  Vent > 20 kt
SIGMETs :   Divers  Orages  Givrage  Turbulence  Onde Orograph.  Cendres Volcan.






- Altitude de l'aérodrome : 1496 ft
- Code IATA : SBZ


LRSB - Sibiu

DERNIER METAR :
  • 210530Z 23006KT 9999 OVC023 M03/M07 Q1043 R27/19//95

METARs EXPIRÉS :
  • 210500Z 25005KT 9999 OVC024 M03/M06 Q1043 R27/19//95
  • 210430Z 25005KT 9999 OVC023 M03/M06 Q1043 R27/19//95
  • 210400Z 26004KT 9999 OVC023 M03/M06 Q1043 R27/19//95
  • 210330Z 25005KT 9999 OVC023 M03/M06 Q1043 R27/19//95
  • 210300Z 26006KT 9999 OVC022 M03/M06 Q1043 R27/19//95

TAF COR TAF LRSB
Valide du 21 à 06h jusqu'au 22 à 06h UTC


210529Z 2106/2206 VRB04KT 9999 OVC025
BECMG 2122/2124 5000 BR BKN015
PROB30
TEMPO 2200/2206 1500 BR OVC005



MET'MAP, la Météo Aéronautique d'un coup d'oeil ! - Copyright ORBIFLY Décembre 2007 - Disclaimer

ORBIFLY MET'MAP TEAM :

Programmation & Développement : Alexandra Zaïnal
Sur une idée originale de : Baudouin d'Aumeries
Assistance à la programmation : Marc-Olivier Méhu
Soutien technique & logistique : Manuel Goepfert

Contact : metmap@orbifly.com




SOURCES & CREDITS :

   NOAA